Time;durP1;ratioP1;P1;durP2;ratioP2;P2;SDS_P1;SDS_P2;PMS_P1;PMS_P2;Temp;Humidity;BMP_temperature;BMP_pressure;BME280_temperature;BME280_humidity;BME280_pressure;Samples;Min_cycle;Max_cycle;Signal;HPM_P1;HPM_P2
2021/12/03 00:01:33;;;;;;;97.82;40.55;;;0.80;99.90;;;;;;5137231;27;20154;-84
2021/12/03 00:03:59;;;;;;;99.60;45.17;;;0.90;99.90;;;;;;5136896;27;20172;-84
2021/12/03 00:06:28;;;;;;;96.43;39.53;;;0.90;99.90;;;;;;5136804;27;20567;-84
2021/12/03 00:08:56;;;;;;;97.82;43.92;;;0.90;99.90;;;;;;5135612;27;20914;-84
2021/12/03 00:11:22;;;;;;;97.68;43.42;;;0.80;99.90;;;;;;5135162;27;20224;-84
2021/12/03 00:13:48;;;;;;;94.50;39.40;;;0.80;99.90;;;;;;5136386;28;20162;-84
2021/12/03 00:16:14;;;;;;;98.10;42.00;;;0.90;99.90;;;;;;5136149;28;20157;-84
2021/12/03 00:18:40;;;;;;;96.43;40.65;;;0.90;99.90;;;;;;5136244;28;20525;-84
2021/12/03 00:21:08;;;;;;;99.63;44.65;;;0.80;99.90;;;;;;5136124;28;20443;-84
2021/12/03 00:23:35;;;;;;;97.53;40.22;;;0.80;99.90;;;;;;5135041;28;20537;-85
2021/12/03 00:26:05;;;;;;;99.93;44.22;;;0.80;99.90;;;;;;5139988;27;20158;-84
2021/12/03 00:28:35;;;;;;;97.95;37.20;;;0.80;99.90;;;;;;5140070;27;20181;-84
2021/12/03 00:31:01;;;;;;;96.78;40.35;;;0.70;99.90;;;;;;5138703;27;20281;-85
2021/12/03 00:33:29;;;;;;;96.22;39.25;;;0.80;99.90;;;;;;5139217;27;20689;-84
2021/12/03 00:36:04;;;;;;;92.95;36.72;;;0.70;99.90;;;;;;5138915;27;20197;-84
2021/12/03 00:38:35;;;;;;;95.68;37.03;;;0.70;99.90;;;;;;5139981;27;20559;-84
2021/12/03 00:41:05;;;;;;;99.47;38.22;;;0.70;99.90;;;;;;5140132;27;20250;-84
2021/12/03 00:43:34;;;;;;;95.45;39.03;;;0.70;99.90;;;;;;5138520;27;20193;-84
2021/12/03 00:46:05;;;;;;;95.50;38.95;;;0.80;99.90;;;;;;5139474;27;20166;-84
2021/12/03 00:48:31;;;;;;;101.68;38.97;;;0.90;99.90;;;;;;5138522;27;20186;-84
2021/12/03 00:50:57;;;;;;;101.90;45.25;;;0.90;99.90;;;;;;5137672;27;20189;-84
2021/12/03 00:53:23;;;;;;;97.33;43.80;;;1.00;99.90;;;;;;5138129;27;20668;-84
2021/12/03 00:55:52;;;;;;;101.83;51.50;;;1.10;99.90;;;;;;5138505;27;20596;-84
2021/12/03 00:58:17;;;;;;;108.25;69.18;;;1.20;99.90;;;;;;5139590;27;20154;-84
2021/12/03 01:00:43;;;;;;;111.17;76.63;;;1.30;99.90;;;;;;5139371;27;20300;-84
2021/12/03 01:03:09;;;;;;;127.07;110.53;;;1.30;99.90;;;;;;5139022;27;20162;-84
2021/12/03 01:05:35;;;;;;;142.80;128.47;;;1.40;99.90;;;;;;5120512;27;20415;-84
2021/12/03 01:08:04;;;;;;;116.23;92.10;;;1.50;99.90;;;;;;5139393;27;20195;-83
2021/12/03 01:10:29;;;;;;;139.40;124.75;;;1.60;99.90;;;;;;5139300;27;20423;-84
2021/12/03 01:12:56;;;;;;;118.33;104.83;;;1.60;99.90;;;;;;5138232;27;20217;-84
2021/12/03 01:15:25;;;;;;;119.63;106.70;;;1.60;99.90;;;;;;5137850;27;20473;-84
2021/12/03 01:17:52;;;;;;;126.20;108.00;;;1.70;99.90;;;;;;5137518;27;20629;-83
2021/12/03 01:20:19;;;;;;;119.82;99.88;;;1.70;99.90;;;;;;5137660;27;20234;-84
2021/12/03 01:22:47;;;;;;;116.50;90.25;;;1.70;99.90;;;;;;5137448;27;20582;-84
2021/12/03 01:25:23;;;;;;;104.55;64.18;;;1.70;99.90;;;;;;5138833;27;20185;-84
2021/12/03 01:27:53;;;;;;;114.55;86.95;;;1.70;99.90;;;;;;5139076;27;20190;-84
2021/12/03 01:30:23;;;;;;;107.60;71.20;;;1.70;99.90;;;;;;5137396;27;20186;-84
2021/12/03 01:32:49;;;;;;;110.07;84.68;;;1.70;99.90;;;;;;5139005;27;20189;-84
2021/12/03 01:35:16;;;;;;;102.30;63.22;;;1.60;99.90;;;;;;5137669;27;20168;-84
2021/12/03 01:37:43;;;;;;;102.47;57.28;;;1.60;99.90;;;;;;5137476;27;20238;-84
2021/12/03 01:40:13;;;;;;;104.97;60.90;;;1.60;99.90;;;;;;5138653;27;20284;-83
2021/12/03 01:42:41;;;;;;;110.72;71.70;;;1.40;99.90;;;;;;5137559;27;20166;-84
2021/12/03 01:45:08;;;;;;;100.72;53.15;;;1.40;99.90;;;;;;5137042;27;20574;-84
2021/12/03 01:47:48;;;;;;;100.70;53.20;;;1.40;99.90;;;;;;5138633;27;20169;-84
2021/12/03 01:50:18;;;;;;;93.95;39.00;;;1.30;99.90;;;;;;5138932;27;20233;-84
2021/12/03 01:52:44;;;;;;;94.47;44.53;;;1.30;99.90;;;;;;5137255;27;20567;-84
2021/12/03 01:55:12;;;;;;;96.10;53.72;;;1.30;99.90;;;;;;5137282;27;20256;-83
2021/12/03 01:57:38;;;;;;;96.57;47.50;;;1.20;99.90;;;;;;5137014;27;20541;-84
2021/12/03 02:00:09;;;;;;;97.57;54.27;;;1.10;99.90;;;;;;5136830;27;20193;-84
2021/12/03 02:02:35;;;;;;;99.70;49.22;;;1.00;99.90;;;;;;5140011;27;20387;-84
2021/12/03 02:05:02;;;;;;;92.80;47.43;;;1.10;99.90;;;;;;5139081;27;20177;-84
2021/12/03 02:07:31;;;;;;;97.13;43.85;;;1.00;99.90;;;;;;5137992;27;20173;-85
2021/12/03 02:09:56;;;;;;;94.97;44.67;;;1.00;99.90;;;;;;5139231;27;20178;-85
2021/12/03 02:12:22;;;;;;;99.77;47.30;;;1.00;99.90;;;;;;5139161;27;20557;-84
2021/12/03 02:14:48;;;;;;;96.67;54.53;;;1.00;99.90;;;;;;5138569;27;20478;-84
2021/12/03 02:17:16;;;;;;;101.13;62.50;;;0.90;99.90;;;;;;5137898;27;20257;-84
2021/12/03 02:19:43;;;;;;;96.35;55.70;;;0.90;99.90;;;;;;5138851;27;20177;-84
2021/12/03 02:22:09;;;;;;;95.30;47.45;;;0.90;99.90;;;;;;5139009;27;20166;-84
2021/12/03 02:24:36;;;;;;;95.70;56.83;;;1.10;99.90;;;;;;5139102;27;20222;-85
2021/12/03 02:27:02;;;;;;;96.22;48.20;;;1.00;99.90;;;;;;5138651;27;20539;-84
2021/12/03 02:29:28;;;;;;;103.70;59.55;;;1.00;99.90;;;;;;5138618;27;20177;-83
2021/12/03 02:31:54;;;;;;;110.50;77.25;;;1.00;99.90;;;;;;5138437;27;20190;-83
2021/12/03 02:34:22;;;;;;;110.67;80.27;;;1.00;99.90;;;;;;5137506;27;20529;-84
2021/12/03 02:36:48;;;;;;;106.68;76.15;;;1.10;99.90;;;;;;5138440;27;20482;-84
2021/12/03 02:39:14;;;;;;;126.30;112.30;;;1.20;99.90;;;;;;5138761;27;20303;-84
2021/12/03 02:41:39;;;;;;;113.07;90.03;;;1.20;99.90;;;;;;5138789;27;20265;-84
2021/12/03 02:44:05;;;;;;;121.93;109.10;;;1.20;99.90;;;;;;5138676;27;20162;-84
2021/12/03 02:46:31;;;;;;;112.13;98.00;;;1.30;99.90;;;;;;5138961;27;20697;-84
2021/12/03 02:48:56;;;;;;;111.43;98.33;;;1.40;99.90;;;;;;5136729;27;20173;-84
2021/12/03 02:51:22;;;;;;;119.37;106.47;;;1.50;99.90;;;;;;5137983;27;20193;-84
2021/12/03 02:53:48;;;;;;;129.03;115.73;;;1.70;99.90;;;;;;5138280;27;20162;-84
2021/12/03 02:56:14;;;;;;;125.73;113.27;;;1.70;99.90;;;;;;5136184;27;20177;-84
2021/12/03 02:58:39;;;;;;;161.63;147.20;;;1.80;99.90;;;;;;5137951;27;20190;-84
2021/12/03 03:01:08;;;;;;;162.70;148.47;;;1.90;99.90;;;;;;5136384;27;20449;-84
2021/12/03 03:03:34;;;;;;;138.35;125.63;;;1.90;99.90;;;;;;5137218;27;20162;-84
2021/12/03 03:06:01;;;;;;;142.03;128.53;;;2.00;99.90;;;;;;5138194;27;20498;-84
2021/12/03 03:08:28;;;;;;;166.63;152.48;;;2.00;99.90;;;;;;5137430;27;20211;-84
2021/12/03 03:10:56;;;;;;;145.90;132.07;;;2.10;99.90;;;;;;5136371;27;20189;-84
2021/12/03 03:13:22;;;;;;;151.00;137.15;;;2.10;99.90;;;;;;5136194;27;20213;-84
2021/12/03 03:15:48;;;;;;;122.85;108.18;;;2.10;99.90;;;;;;5137826;27;20160;-84
2021/12/03 03:18:19;;;;;;;140.52;127.55;;;2.10;99.90;;;;;;5137627;27;20168;-84
2021/12/03 03:20:46;;;;;;;118.68;106.63;;;2.20;99.90;;;;;;5138350;27;20189;-84
2021/12/03 03:23:16;;;;;;;121.15;108.63;;;2.20;99.90;;;;;;5137967;27;20222;-84
2021/12/03 03:25:43;;;;;;;132.85;120.07;;;2.20;99.90;;;;;;5137707;27;20157;-84
2021/12/03 03:28:10;;;;;;;135.45;121.90;;;2.20;99.90;;;;;;5138492;27;20605;-84
2021/12/03 03:30:37;;;;;;;140.13;126.53;;;2.30;99.90;;;;;;5136331;27;20185;-84
2021/12/03 03:33:03;;;;;;;132.30;118.78;;;2.30;99.90;;;;;;5138691;27;20197;-84
2021/12/03 03:35:29;;;;;;;137.20;123.78;;;2.30;99.90;;;;;;5137980;27;20158;-84
2021/12/03 03:37:55;;;;;;;117.23;104.70;;;2.30;99.90;;;;;;5137613;27;20571;-84
2021/12/03 03:40:21;;;;;;;144.02;130.50;;;2.40;99.90;;;;;;5137889;27;20211;-84
2021/12/03 03:42:50;;;;;;;139.70;126.35;;;2.40;99.90;;;;;;5137061;27;20166;-84
2021/12/03 03:45:19;;;;;;;135.35;122.28;;;2.40;99.90;;;;;;5137731;27;20166;-84
2021/12/03 03:47:46;;;;;;;122.28;110.05;;;2.40;99.90;;;;;;5137972;27;20629;-84
2021/12/03 03:50:13;;;;;;;131.50;118.50;;;2.40;99.90;;;;;;5136922;27;20201;-84
2021/12/03 03:52:42;;;;;;;138.57;125.45;;;2.40;99.90;;;;;;5137782;27;20182;-84
2021/12/03 03:55:11;;;;;;;123.80;111.55;;;2.40;99.90;;;;;;5137653;27;20158;-84
2021/12/03 03:57:38;;;;;;;146.90;133.30;;;2.40;99.90;;;;;;5136593;27;20162;-84
2021/12/03 04:00:07;;;;;;;137.63;124.38;;;2.40;99.90;;;;;;5136447;27;20221;-84
2021/12/03 04:02:33;;;;;;;112.88;100.78;;;2.40;99.90;;;;;;5137362;27;20162;-84
2021/12/03 04:04:59;;;;;;;122.60;110.50;;;2.40;99.90;;;;;;5138212;27;20226;-84
2021/12/03 04:07:25;;;;;;;142.30;129.67;;;2.40;99.90;;;;;;5137319;27;20407;-84
2021/12/03 04:09:50;;;;;;;128.37;115.70;;;2.40;99.90;;;;;;5137350;27;20914;-85
2021/12/03 04:12:16;;;;;;;118.87;107.00;;;2.40;99.90;;;;;;5137826;27;20244;-84
2021/12/03 04:14:42;;;;;;;128.93;116.77;;;2.40;99.90;;;;;;5136182;28;20170;-84
2021/12/03 04:17:08;;;;;;;121.80;109.78;;;2.40;99.90;;;;;;5137198;28;20392;-85
2021/12/03 04:19:35;;;;;;;117.97;106.17;;;2.50;99.90;;;;;;5137176;28;20668;-85
2021/12/03 04:22:02;;;;;;;109.45;98.07;;;2.50;99.90;;;;;;5136430;28;20444;-84
2021/12/03 04:24:28;;;;;;;122.40;109.75;;;2.60;99.90;;;;;;5136065;28;20185;-85
2021/12/03 04:26:53;;;;;;;132.30;120.10;;;2.60;99.90;;;;;;5137677;28;20187;-85
2021/12/03 04:29:19;;;;;;;142.20;129.10;;;2.60;99.90;;;;;;5137567;28;20183;-85
2021/12/03 04:31:45;;;;;;;121.57;109.60;;;2.50;99.90;;;;;;5137165;28;20640;-85
2021/12/03 04:34:10;;;;;;;114.47;102.73;;;2.60;99.90;;;;;;5136530;28;20162;-84
2021/12/03 04:36:36;;;;;;;112.13;100.67;;;2.60;99.90;;;;;;5138211;28;20177;-85
2021/12/03 04:39:02;;;;;;;120.03;108.00;;;2.60;99.90;;;;;;5137635;28;20178;-85
2021/12/03 04:41:28;;;;;;;138.18;125.35;;;2.60;99.90;;;;;;5137691;28;20556;-85
2021/12/03 04:43:54;;;;;;;145.00;132.17;;;2.60;99.90;;;;;;5137031;28;20166;-85
2021/12/03 04:46:22;;;;;;;134.37;121.63;;;2.60;99.90;;;;;;5136781;28;20176;-85
2021/12/03 04:48:48;;;;;;;127.63;115.43;;;2.50;99.90;;;;;;5137095;28;20173;-84
2021/12/03 04:51:17;;;;;;;112.97;101.00;;;2.50;99.90;;;;;;5137848;28;20162;-85
2021/12/03 04:53:43;;;;;;;127.53;115.30;;;2.50;99.90;;;;;;5138309;28;20158;-85
2021/12/03 04:56:08;;;;;;;120.10;108.23;;;2.50;99.90;;;;;;5138579;28;20520;-85
2021/12/03 04:58:34;;;;;;;114.83;103.00;;;2.60;99.90;;;;;;5138595;28;20677;-85
2021/12/03 05:01:00;;;;;;;106.53;95.13;;;2.50;99.90;;;;;;5136722;28;20265;-85
2021/12/03 05:03:29;;;;;;;105.38;94.03;;;2.60;99.90;;;;;;5138525;28;20244;-84
2021/12/03 05:05:58;;;;;;;110.05;93.93;;;2.60;99.90;;;;;;5136252;28;20188;-85
2021/12/03 05:08:26;;;;;;;111.82;99.85;;;2.60;99.90;;;;;;5140010;27;20260;-84
2021/12/03 05:10:51;;;;;;;120.32;108.63;;;2.60;99.90;;;;;;5160164;27;20674;-85
2021/12/03 05:13:25;;;;;;;117.70;105.93;;;2.60;99.90;;;;;;5163050;27;20193;-85
2021/12/03 05:15:51;;;;;;;148.15;134.95;;;2.70;99.90;;;;;;5162956;27;20401;-84
2021/12/03 05:18:21;;;;;;;101.90;89.68;;;2.70;99.90;;;;;;5162140;27;20157;-85
2021/12/03 05:20:52;;;;;;;124.07;112.47;;;2.70;99.90;;;;;;5144458;27;20185;-85
2021/12/03 05:23:20;;;;;;;122.57;110.07;;;2.70;99.90;;;;;;5163596;27;20154;-85
2021/12/03 05:25:47;;;;;;;109.15;97.70;;;2.80;99.90;;;;;;5162660;27;20248;-85
2021/12/03 05:28:14;;;;;;;128.27;116.50;;;2.80;99.90;;;;;;5143671;27;20176;-85
2021/12/03 05:30:40;;;;;;;118.70;106.90;;;2.90;99.90;;;;;;5161716;27;20181;-85
2021/12/03 05:33:06;;;;;;;125.30;113.37;;;2.90;99.90;;;;;;5162008;27;20189;-85
2021/12/03 05:35:32;;;;;;;141.85;129.05;;;2.80;99.90;;;;;;5142848;27;20157;-85
2021/12/03 05:37:58;;;;;;;117.70;106.10;;;2.90;99.90;;;;;;5161814;27;20169;-85
2021/12/03 05:40:27;;;;;;;120.73;109.03;;;2.90;99.90;;;;;;5143467;27;20200;-85
2021/12/03 05:42:53;;;;;;;126.85;114.50;;;2.90;99.90;;;;;;5143547;27;20433;-85
2021/12/03 05:45:27;;;;;;;131.00;118.43;;;2.90;99.90;;;;;;5143696;27;20189;-85
2021/12/03 05:47:55;;;;;;;117.40;105.47;;;2.90;99.90;;;;;;5143484;27;20218;-85
2021/12/03 05:50:22;;;;;;;104.63;93.53;;;2.90;99.90;;;;;;5161061;27;20652;-85
2021/12/03 05:52:58;;;;;;;115.00;103.40;;;2.90;99.90;;;;;;5161578;27;20640;-85
2021/12/03 05:55:25;;;;;;;125.13;106.90;;;3.00;99.90;;;;;;5144098;27;20662;-85
2021/12/03 05:57:57;;;;;;;110.90;99.15;;;3.00;99.90;;;;;;5143170;27;20198;-85
2021/12/03 06:00:30;;;;;;;122.38;110.43;;;3.00;99.90;;;;;;5142620;27;20265;-85
2021/12/03 06:02:57;;;;;;;129.60;117.03;;;3.00;99.90;;;;;;5160789;27;20210;-85
2021/12/03 06:05:25;;;;;;;130.15;117.25;;;3.00;99.90;;;;;;5142976;27;20547;-85
2021/12/03 06:07:54;;;;;;;111.45;99.43;;;3.00;99.90;;;;;;5161532;27;20640;-84
2021/12/03 06:10:20;;;;;;;120.00;108.10;;;3.10;99.90;;;;;;5161543;27;20185;-85
2021/12/03 06:12:47;;;;;;;102.00;85.32;;;3.10;99.90;;;;;;5143484;27;20189;-85
2021/12/03 06:15:19;;;;;;;125.30;113.20;;;3.10;99.90;;;;;;5161192;27;20187;-85
2021/12/03 06:17:45;;;;;;;100.45;88.53;;;3.10;99.90;;;;;;5161575;27;20653;-85
2021/12/03 06:20:16;;;;;;;102.50;91.18;;;3.10;99.90;;;;;;5162426;27;20667;-84
2021/12/03 06:22:41;;;;;;;101.78;90.00;;;3.10;99.90;;;;;;5161770;27;20142;-85
2021/12/03 06:25:09;;;;;;;100.27;88.23;;;3.10;99.90;;;;;;5144375;27;20532;-85
2021/12/03 06:27:36;;;;;;;110.70;98.70;;;3.00;99.90;;;;;;5163141;27;20157;-85
2021/12/03 06:30:06;;;;;;;108.95;85.07;;;3.10;99.90;;;;;;5163049;27;20188;-84
2021/12/03 06:32:32;;;;;;;112.68;101.30;;;3.10;99.90;;;;;;5162607;27;20187;-85
2021/12/03 06:34:57;;;;;;;96.70;83.53;;;3.10;99.90;;;;;;5161631;27;20196;-85
2021/12/03 06:37:23;;;;;;;103.50;86.83;;;3.00;99.90;;;;;;5161667;27;20161;-85
2021/12/03 06:39:48;;;;;;;96.57;77.67;;;3.00;99.90;;;;;;5161239;27;20229;-85
2021/12/03 06:42:14;;;;;;;110.90;99.03;;;3.00;99.90;;;;;;5161570;27;20229;-85
2021/12/03 06:44:40;;;;;;;116.77;104.93;;;3.00;99.90;;;;;;5161870;27;20172;-85
2021/12/03 06:47:06;;;;;;;99.97;85.63;;;3.10;99.90;;;;;;5161945;27;20165;-85
2021/12/03 06:49:33;;;;;;;115.23;103.37;;;3.10;99.90;;;;;;5161488;27;20185;-85
2021/12/03 06:52:02;;;;;;;102.43;90.78;;;3.10;99.90;;;;;;5161164;27;20181;-85
2021/12/03 06:54:33;;;;;;;117.55;105.40;;;3.10;99.90;;;;;;5161309;27;20157;-85
2021/12/03 06:57:01;;;;;;;112.97;101.35;;;3.10;99.90;;;;;;5161337;27;20654;-85
2021/12/03 06:59:26;;;;;;;102.45;91.55;;;3.10;99.90;;;;;;5141696;27;20597;-85
2021/12/03 07:01:52;;;;;;;133.07;120.13;;;3.10;99.90;;;;;;5140479;27;20198;-85
2021/12/03 07:04:22;;;;;;;104.20;93.00;;;3.10;99.90;;;;;;5141880;27;20490;-85
2021/12/03 07:06:48;;;;;;;117.15;105.20;;;3.20;99.90;;;;;;5160079;27;20501;-85
2021/12/03 07:09:14;;;;;;;128.75;116.70;;;3.20;99.90;;;;;;5159535;27;20188;-85
2021/12/03 07:11:41;;;;;;;126.93;113.77;;;3.20;99.90;;;;;;5140892;27;20189;-84
2021/12/03 07:14:07;;;;;;;101.75;89.30;;;3.30;99.90;;;;;;5159388;27;20520;-85
2021/12/03 07:16:33;;;;;;;108.17;96.67;;;3.20;99.90;;;;;;5140710;27;20164;-84
2021/12/03 07:18:59;;;;;;;108.05;96.63;;;3.20;99.90;;;;;;5159476;27;20426;-84
2021/12/03 07:21:25;;;;;;;103.00;91.80;;;3.30;99.90;;;;;;5141392;27;20181;-85
2021/12/03 07:23:52;;;;;;;109.05;97.95;;;3.20;99.90;;;;;;5141432;27;20186;-85
2021/12/03 07:26:23;;;;;;;108.13;75.82;;;3.20;99.90;;;;;;5142540;27;20157;-85
2021/12/03 07:28:49;;;;;;;109.40;97.82;;;3.10;99.90;;;;;;5160105;27;20149;-85
2021/12/03 07:31:15;;;;;;;105.32;84.70;;;3.20;99.90;;;;;;5160134;27;20624;-85
2021/12/03 07:33:41;;;;;;;109.03;97.70;;;3.20;99.90;;;;;;5159805;27;20185;-85
2021/12/03 07:36:10;;;;;;;104.60;93.23;;;3.20;99.90;;;;;;5159441;27;20624;-86
2021/12/03 07:38:36;;;;;;;105.63;94.18;;;3.20;99.90;;;;;;5159024;27;20743;-84
2021/12/03 07:41:03;;;;;;;110.07;98.75;;;3.20;99.90;;;;;;5139743;27;20193;-85
2021/12/03 07:43:29;;;;;;;118.32;105.18;;;3.20;99.90;;;;;;5141570;27;20169;-85
2021/12/03 07:45:55;;;;;;;98.88;87.68;;;3.20;99.90;;;;;;5160460;27;20145;-86
2021/12/03 07:48:22;;;;;;;106.47;95.00;;;3.10;99.90;;;;;;5139725;27;20248;-84
2021/12/03 07:50:50;;;;;;;99.30;76.55;;;3.10;99.90;;;;;;5155275;27;20271;-84
2021/12/03 07:53:19;;;;;;;97.53;86.63;;;3.00;99.90;;;;;;5136805;27;20185;-83
2021/12/03 07:55:46;;;;;;;103.40;92.32;;;3.00;99.90;;;;;;5156366;27;20202;-85
2021/12/03 07:58:12;;;;;;;127.82;115.43;;;3.10;99.90;;;;;;5137421;27;20165;-84
2021/12/03 08:01:11;;;;;;;97.87;75.40;;;3.10;99.90;;;;;;5212398;22;20181;-84
2021/12/03 08:03:42;;;;;;;98.75;86.13;;;3.10;99.90;;;;;;5078442;28;20207;-85
2021/12/03 08:06:09;;;;;;;94.70;73.65;;;3.20;99.90;;;;;;5080325;28;20676;-85
2021/12/03 08:08:52;;;;;;;101.38;85.05;;;3.20;99.90;;;;;;5098346;28;20159;-85
2021/12/03 08:11:28;;;;;;;96.13;79.88;;;3.20;99.90;;;;;;5078247;28;20208;-85
2021/12/03 08:14:05;;;;;;;97.00;86.40;;;3.20;99.90;;;;;;5078015;28;20246;-86
2021/12/03 08:16:42;;;;;;;98.22;76.80;;;3.20;99.90;;;;;;5059443;28;20221;-86
2021/12/03 08:19:20;;;;;;;90.45;70.13;;;3.20;99.90;;;;;;5077622;28;20179;-85
2021/12/03 08:21:57;;;;;;;114.05;102.65;;;3.20;99.90;;;;;;5077796;28;20179;-85
2021/12/03 08:24:28;;;;;;;124.93;113.15;;;3.20;99.90;;;;;;5060583;28;20217;-85
2021/12/03 08:27:29;;;;;;;106.85;95.88;;;3.30;99.90;;;;;;5077171;28;20171;-86
2021/12/03 08:30:55;;;;;;;109.10;98.03;;;3.30;99.90;;;;;;5056298;28;20694;-86
2021/12/03 08:33:23;;;;;;;106.00;94.95;;;3.40;99.90;;;;;;5075481;28;20286;-86
2021/12/03 08:35:57;;;;;;;121.93;109.10;;;3.50;99.90;;;;;;5077787;28;20585;-86
2021/12/03 08:38:25;;;;;;;112.47;100.70;;;3.60;99.90;;;;;;5058418;28;20182;-85
2021/12/03 08:40:54;;;;;;;104.38;88.40;;;3.60;99.90;;;;;;5059921;28;20213;-86
2021/12/03 08:43:23;;;;;;;106.43;95.50;;;3.60;99.90;;;;;;5059977;28;20229;-85
2021/12/03 08:46:33;;;;;;;102.88;91.88;;;3.60;99.90;;;;;;5079279;28;20164;-86
2021/12/03 08:54:56;;;;;;;82.72;44.55;;;3.60;99.90;;;;;;5082419;28;20160;-86
2021/12/03 08:58:26;;;;;;;82.28;41.35;;;3.70;99.90;;;;;;5064349;28;20186;-86
2021/12/03 09:00:30;;;;;;;83.85;47.55;;;3.70;99.90;;;;;;5071827;28;20188;-86
2021/12/03 09:02:56;;;;;;;85.13;49.83;;;3.70;99.90;;;;;;5064472;28;20190;-86
2021/12/03 09:08:27;;;;;;;86.47;48.28;;;3.80;99.90;;;;;;5036998;28;20398;-86
2021/12/03 09:11:44;;;;;;;;;;;;;;;;;;;;;
2021/12/03 09:15:03;;;;;;;87.82;52.00;;;3.90;99.90;;;;;;5078733;28;20428;-86
2021/12/03 09:24:02;;;;;;;83.28;44.72;;;3.90;99.90;;;;;;5081694;28;20257;-86
2021/12/03 09:26:04;;;;;;;90.13;55.95;;;3.90;99.90;;;;;;5073669;28;20171;-85
2021/12/03 09:28:38;;;;;;;90.32;52.72;;;3.90;99.90;;;;;;5060257;28;20164;-84
2021/12/03 09:31:29;;;;;;;87.80;51.22;;;3.90;99.90;;;;;;5078759;28;20207;-85
2021/12/03 09:33:52;;;;;;;88.78;49.35;;;3.90;99.90;;;;;;5079552;28;20183;-86
2021/12/03 09:37:02;;;;;;;87.78;36.40;;;3.90;99.90;;;;;;5080694;28;20153;-85
2021/12/03 09:39:42;;;;;;;91.55;51.97;;;3.90;99.90;;;;;;5060953;28;20192;-85
2021/12/03 09:55:25;;;;;;;79.13;20.15;;;4.10;99.90;;;;;;4998905;28;20182;-83
2021/12/03 10:01:07;;;;;;;85.72;45.50;;;4.10;99.90;;;;;;4998421;28;20261;-85
2021/12/03 10:03:52;;;;;;;82.65;30.67;;;4.10;99.90;;;;;;5038861;28;20278;-84
2021/12/03 10:16:01;;;;;;;77.53;16.60;;;4.20;99.90;;;;;;5099540;28;20565;-83
2021/12/03 10:19:19;;;;;;;78.63;14.65;;;4.20;99.90;;;;;;5099107;28;20198;-84
2021/12/03 10:45:35;;;;;;;87.28;19.25;;;4.40;99.90;;;;;;5080399;28;20182;-85
2021/12/03 10:48:14;;;;;;;76.20;12.88;;;4.40;99.90;;;;;;5078848;28;20180;-85
2021/12/03 11:20:31;;;;;;;72.20;13.68;;;4.90;99.90;;;;;;5078689;28;20205;-86
2021/12/03 13:19:52;;;;;;;70.28;8.52;;;5.20;99.90;;;;;;5085024;28;20193;-83
2021/12/03 14:29:52;;;;;;;74.32;12.25;;;5.10;99.90;;;;;;5098787;28;20204;-84
2021/12/03 14:44:03;;;;;;;73.97;9.20;;;5.00;99.90;;;;;;5074740;28;20172;-84
2021/12/03 14:55:11;;;;;;;70.97;10.43;;;4.90;99.90;;;;;;5098542;28;20143;-84
2021/12/03 14:57:55;;;;;;;;;;;;;;;;;;;;;
2021/12/03 15:33:03;;;;;;;72.80;17.42;;;4.70;99.90;;;;;;5098702;28;20179;-85
2021/12/03 15:35:40;;;;;;;73.45;14.35;;;4.50;99.90;;;;;;5097586;28;20166;-85
2021/12/03 15:38:20;;;;;;;72.75;13.70;;;4.60;99.90;;;;;;5098107;28;20139;-85
2021/12/03 16:04:20;;;;;;;82.10;41.35;;;4.50;99.90;;;;;;5095944;28;20158;-83
2021/12/03 16:15:27;;;;;;;147.20;133.90;;;4.30;99.90;;;;;;5082217;28;20174;-83
2021/12/03 16:52:29;;;;;;;99.43;77.63;;;4.70;99.90;;;;;;5096752;28;20179;-83
2021/12/03 16:54:57;;;;;;;82.03;44.30;;;4.70;99.90;;;;;;5095609;28;20143;-83
2021/12/03 16:57:35;;;;;;;86.68;51.42;;;4.70;99.90;;;;;;5094645;28;20171;-83
2021/12/03 17:00:16;;;;;;;79.80;34.20;;;4.60;99.90;;;;;;5095535;28;20662;-84
2021/12/03 17:02:49;;;;;;;76.43;25.23;;;4.70;99.90;;;;;;5095278;28;20195;-83
2021/12/03 17:05:37;;;;;;;89.53;53.50;;;4.70;99.90;;;;;;5095870;28;20179;-83
2021/12/03 17:10:50;;;;;;;82.68;44.17;;;4.70;99.90;;;;;;5100687;28;20183;-84
2021/12/03 17:51:08;;;;;;;171.95;154.10;;;4.50;99.90;;;;;;5099627;28;20302;-84
2021/12/03 17:58:47;;;;;;;245.32;162.65;;;4.50;99.90;;;;;;5099987;28;20170;-84
2021/12/03 18:01:21;;;;;;;159.00;142.10;;;4.60;99.90;;;;;;5099812;28;20638;-84
2021/12/03 18:09:18;;;;;;;320.42;169.27;;;4.60;99.90;;;;;;5100641;28;20147;-83
2021/12/03 18:55:42;;;;;;;85.97;52.50;;;4.80;99.90;;;;;;5097430;28;20568;-83
2021/12/03 18:58:07;;;;;;;87.50;57.72;;;4.80;99.90;;;;;;5096479;28;20267;-83
2021/12/03 19:00:37;;;;;;;87.30;58.83;;;4.80;99.90;;;;;;5097018;28;20238;-83
2021/12/03 19:03:29;;;;;;;93.90;61.83;;;4.80;99.90;;;;;;5097261;28;20269;-84
2021/12/03 19:11:10;;;;;;;87.60;52.03;;;4.90;99.90;;;;;;5097776;28;20190;-83
2021/12/03 19:13:38;;;;;;;92.13;57.70;;;4.90;99.90;;;;;;5097708;28;20178;-83
2021/12/03 19:16:09;;;;;;;98.10;68.00;;;4.90;99.90;;;;;;5096589;28;20174;-83
2021/12/03 19:18:36;;;;;;;79.68;29.95;;;4.90;99.90;;;;;;5095669;28;20185;-83
2021/12/03 19:21:07;;;;;;;77.97;27.52;;;4.90;99.90;;;;;;5096995;28;20198;-84
2021/12/03 19:23:33;;;;;;;74.97;21.02;;;4.90;99.90;;;;;;5097282;28;20152;-83
2021/12/03 19:26:01;;;;;;;79.43;29.30;;;4.90;99.90;;;;;;5095411;28;20163;-84
2021/12/03 19:28:28;;;;;;;81.60;36.55;;;4.90;99.90;;;;;;5095008;28;20416;-83
2021/12/03 19:30:56;;;;;;;76.00;27.48;;;4.90;99.90;;;;;;5095800;28;20605;-83
2021/12/03 19:33:22;;;;;;;91.80;72.57;;;5.00;99.90;;;;;;5096774;28;20217;-83
2021/12/03 19:35:47;;;;;;;85.47;56.13;;;4.90;99.90;;;;;;5096212;28;20171;-84
2021/12/03 19:38:17;;;;;;;83.50;50.23;;;4.80;99.90;;;;;;5096200;28;20163;-84
2021/12/03 19:40:51;;;;;;;87.30;61.65;;;4.80;99.90;;;;;;5095233;28;20183;-84
2021/12/03 19:43:19;;;;;;;85.60;52.70;;;4.80;99.90;;;;;;5096133;28;20159;-84
2021/12/03 19:45:52;;;;;;;81.22;43.22;;;4.90;99.90;;;;;;5097246;28;20159;-83
2021/12/03 19:48:19;;;;;;;79.78;30.13;;;4.90;99.90;;;;;;5096696;28;20163;-84
2021/12/03 19:50:47;;;;;;;76.87;30.73;;;5.00;99.90;;;;;;5096851;28;20194;-84
2021/12/03 19:53:16;;;;;;;87.95;49.47;;;5.00;99.90;;;;;;5095449;28;20236;-84
2021/12/03 19:55:44;;;;;;;85.25;53.58;;;5.00;99.90;;;;;;5095831;28;20201;-83
2021/12/03 19:58:12;;;;;;;87.13;61.42;;;4.90;99.90;;;;;;5096281;28;20556;-83
2021/12/03 20:00:39;;;;;;;88.95;66.32;;;4.90;99.90;;;;;;5096143;28;20270;-83
2021/12/03 20:03:09;;;;;;;76.82;31.92;;;5.00;99.90;;;;;;5094652;28;20221;-84
2021/12/03 20:05:38;;;;;;;72.28;13.27;;;5.00;99.90;;;;;;5094879;28;20204;-83
2021/12/03 20:08:05;;;;;;;72.05;14.40;;;5.10;99.90;;;;;;5096005;28;20167;-83
2021/12/03 20:10:36;;;;;;;80.68;27.83;;;5.10;99.90;;;;;;5095363;28;20266;-84
2021/12/03 20:13:05;;;;;;;71.88;16.88;;;5.00;99.90;;;;;;5093950;28;20186;-83
2021/12/03 20:15:47;;;;;;;75.78;25.73;;;5.00;99.90;;;;;;5094260;28;20163;-83
2021/12/03 20:18:29;;;;;;;76.75;18.00;;;5.00;99.90;;;;;;5094277;28;20228;-83
2021/12/03 20:20:57;;;;;;;70.60;12.13;;;5.10;99.90;;;;;;5094750;28;20274;-83
2021/12/03 20:26:27;;;;;;;75.00;25.67;;;5.10;99.90;;;;;;5096068;28;20196;-83
2021/12/03 20:29:02;;;;;;;74.78;24.92;;;5.00;99.90;;;;;;5095443;28;20170;-82
2021/12/03 20:31:33;;;;;;;71.35;12.57;;;5.00;99.90;;;;;;5094431;28;20162;-83
2021/12/03 20:39:03;;;;;;;73.28;20.48;;;5.10;99.90;;;;;;5095523;28;20224;-83
2021/12/03 20:41:42;;;;;;;70.82;12.75;;;5.10;99.90;;;;;;5096473;28;20220;-83
2021/12/03 21:10:41;;;;;;;71.50;16.27;;;5.20;99.90;;;;;;5099018;28;20187;-82
2021/12/03 21:13:10;;;;;;;70.45;14.05;;;5.20;99.90;;;;;;5099155;28;20273;-83
2021/12/03 21:16:05;;;;;;;71.80;14.38;;;5.20;99.90;;;;;;5099411;28;20159;-83
2021/12/03 21:23:31;;;;;;;80.47;37.70;;;5.10;99.90;;;;;;5099476;28;20167;-83
2021/12/03 21:25:58;;;;;;;79.68;36.60;;;5.00;99.90;;;;;;5099316;28;20147;-83
2021/12/03 21:31:06;;;;;;;71.97;16.17;;;5.00;99.90;;;;;;5099081;28;20183;-82
2021/12/03 21:41:29;;;;;;;70.87;15.17;;;5.20;99.90;;;;;;5098115;28;20151;-83
2021/12/03 21:44:05;;;;;;;73.93;22.30;;;5.10;99.90;;;;;;5098469;28;20159;-83
2021/12/03 21:46:34;;;;;;;72.25;16.92;;;5.10;99.90;;;;;;5098217;28;20147;-83
2021/12/03 21:49:00;;;;;;;72.07;17.17;;;5.10;99.90;;;;;;5098839;28;20207;-83
2021/12/03 21:51:27;;;;;;;70.10;12.90;;;5.10;99.90;;;;;;5098522;28;20167;-83
2021/12/03 21:53:54;;;;;;;70.32;13.05;;;5.10;99.90;;;;;;5095499;28;20218;-83